createdAt,value
2022-10-24T00:01:22.685Z,2.20
2022-10-24T00:03:50.270Z,2.72
2022-10-24T00:06:18.945Z,2.15
2022-10-24T00:08:47.035Z,2.45
2022-10-24T00:11:18.820Z,2.85
2022-10-24T00:13:45.868Z,2.63
2022-10-24T00:16:13.785Z,2.42
2022-10-24T00:18:41.313Z,2.70
2022-10-24T00:21:09.105Z,2.50
2022-10-24T00:23:36.846Z,2.00
2022-10-24T00:26:05.273Z,2.75
2022-10-24T00:28:36.040Z,2.42
2022-10-24T00:31:04.448Z,2.20
2022-10-24T00:33:32.255Z,2.67
2022-10-24T00:35:59.588Z,1.98
2022-10-24T00:38:27.490Z,3.00
2022-10-24T00:40:54.418Z,1.65
2022-10-24T00:43:25.959Z,2.05
2022-10-24T00:46:00.571Z,2.70
2022-10-24T00:48:34.070Z,2.10
2022-10-24T00:51:10.232Z,1.92
2022-10-24T00:53:45.105Z,3.55
2022-10-24T00:56:14.128Z,1.95
2022-10-24T00:58:44.196Z,1.63
2022-10-24T01:01:12.505Z,1.50
2022-10-24T01:03:39.822Z,1.30
2022-10-24T01:06:32.070Z,1.30
2022-10-24T01:09:39.600Z,1.83
2022-10-24T01:12:39.800Z,2.08
2022-10-24T01:15:23.173Z,1.40
2022-10-24T01:18:16.393Z,1.70
2022-10-24T01:21:07.708Z,2.15
2022-10-24T01:23:50.187Z,2.17
2022-10-24T01:26:31.750Z,1.48
2022-10-24T01:29:39.686Z,1.10
2022-10-24T01:32:38.200Z,2.15
2022-10-24T01:35:25.458Z,1.35
2022-10-24T01:38:27.959Z,1.65
2022-10-24T01:41:01.068Z,1.35
2022-10-24T01:43:49.881Z,1.83
2022-10-24T01:46:25.032Z,1.92
2022-10-24T01:49:00.563Z,1.77
2022-10-24T01:51:31.041Z,1.90
2022-10-24T01:53:58.465Z,2.15
2022-10-24T01:56:27.262Z,3.15
2022-10-24T01:59:04.785Z,2.53
2022-10-24T02:01:32.718Z,1.20
2022-10-24T02:04:06.259Z,1.65
2022-10-24T02:06:39.359Z,2.72
2022-10-24T02:09:15.745Z,1.60
2022-10-24T02:11:44.437Z,2.13
2022-10-24T02:14:18.172Z,1.80
2022-10-24T02:16:45.475Z,1.63
2022-10-24T02:19:14.301Z,2.08
2022-10-24T02:22:06.007Z,1.83
2022-10-24T02:24:50.230Z,2.38
2022-10-24T02:27:34.450Z,1.60
2022-10-24T02:30:08.632Z,1.60
2022-10-24T02:32:40.972Z,2.22
2022-10-24T02:35:10.545Z,2.67
2022-10-24T02:37:44.895Z,1.67
2022-10-24T02:40:14.005Z,1.27
2022-10-24T02:42:43.119Z,1.45
2022-10-24T02:45:12.279Z,1.02
2022-10-24T02:47:41.647Z,1.25
2022-10-24T02:50:09.890Z,1.63
2022-10-24T02:52:39.407Z,1.25
2022-10-24T02:55:07.286Z,1.30
2022-10-24T02:57:34.374Z,2.20
2022-10-24T03:00:01.356Z,1.00
2022-10-24T03:02:28.309Z,1.38
2022-10-24T03:04:55.252Z,1.10
2022-10-24T03:07:22.205Z,1.75
2022-10-24T03:09:49.193Z,1.15
2022-10-24T03:12:17.567Z,1.70
2022-10-24T03:14:45.068Z,1.05
2022-10-24T03:17:12.147Z,1.13
2022-10-24T03:19:39.083Z,1.20
2022-10-24T03:22:06.184Z,0.90
2022-10-24T03:24:44.018Z,1.30
2022-10-24T03:27:12.035Z,1.17
2022-10-24T03:29:38.992Z,1.48
2022-10-24T03:32:06.507Z,0.95
2022-10-24T03:34:33.821Z,0.98
2022-10-24T03:37:01.032Z,1.00
2022-10-24T03:39:27.970Z,1.25
2022-10-24T03:41:55.950Z,1.08
2022-10-24T03:44:22.981Z,0.93
2022-10-24T03:46:50.333Z,0.98
2022-10-24T03:49:17.300Z,1.23
2022-10-24T03:51:44.429Z,1.30
2022-10-24T03:54:12.497Z,1.00
2022-10-24T03:56:39.500Z,0.77
2022-10-24T03:59:06.401Z,1.25
2022-10-24T04:01:33.450Z,0.63
2022-10-24T04:04:00.497Z,0.85
2022-10-24T04:06:27.720Z,0.85
2022-10-24T04:08:55.991Z,0.60
2022-10-24T04:11:24.452Z,0.68
2022-10-24T04:13:52.619Z,1.50
2022-10-24T04:16:20.879Z,1.17
2022-10-24T04:18:47.832Z,0.93
2022-10-24T04:21:19.341Z,1.00
2022-10-24T04:23:49.192Z,0.65
2022-10-24T04:26:16.978Z,0.93
2022-10-24T04:28:46.774Z,0.95
2022-10-24T04:31:16.935Z,0.80
2022-10-24T04:33:46.751Z,1.55
2022-10-24T04:36:13.892Z,1.02
2022-10-24T04:38:40.998Z,1.05
2022-10-24T04:41:11.222Z,1.40
2022-10-24T04:43:39.646Z,0.93
2022-10-24T04:46:07.000Z,0.85
2022-10-24T04:48:34.191Z,0.63
2022-10-24T04:51:01.127Z,0.70
2022-10-24T04:53:28.092Z,1.08
2022-10-24T04:55:54.984Z,0.68
2022-10-24T04:58:21.963Z,0.82
2022-10-24T05:00:50.427Z,0.75
2022-10-24T05:03:23.230Z,1.10
2022-10-24T05:05:50.344Z,1.23
2022-10-24T05:08:18.387Z,1.27
2022-10-24T05:10:45.539Z,0.85
2022-10-24T05:13:12.713Z,1.00
2022-10-24T05:15:39.704Z,1.02
2022-10-24T05:18:06.905Z,0.60
2022-10-24T05:20:33.845Z,1.23
2022-10-24T05:23:00.822Z,0.95
2022-10-24T05:25:27.762Z,1.38
2022-10-24T05:27:55.003Z,1.27
2022-10-24T05:30:22.116Z,1.30
2022-10-24T05:32:49.005Z,0.73
2022-10-24T05:35:15.903Z,0.93
2022-10-24T05:37:44.065Z,1.05
2022-10-24T05:40:13.191Z,0.80
2022-10-24T05:42:40.694Z,1.80
2022-10-24T05:45:09.880Z,0.80
2022-10-24T05:47:37.244Z,0.38
2022-10-24T05:50:06.115Z,1.48
2022-10-24T05:52:33.338Z,1.67
2022-10-24T05:55:07.198Z,0.65
2022-10-24T05:57:38.228Z,1.13
2022-10-24T06:00:12.779Z,1.27
2022-10-24T06:02:41.003Z,0.68
2022-10-24T06:05:09.466Z,0.55
2022-10-24T06:07:37.198Z,1.70
2022-10-24T06:10:06.835Z,0.70
2022-10-24T06:12:36.045Z,0.88
2022-10-24T06:15:06.993Z,1.00
2022-10-24T06:17:34.098Z,0.70
2022-10-24T06:20:01.010Z,0.95
2022-10-24T06:22:29.714Z,1.52
2022-10-24T06:24:57.196Z,0.70
2022-10-24T06:27:24.704Z,0.82
2022-10-24T06:29:51.607Z,0.85
2022-10-24T06:32:18.651Z,1.08
2022-10-24T06:34:45.637Z,1.10
2022-10-24T06:37:12.497Z,0.75
2022-10-24T06:39:39.436Z,0.75
2022-10-24T06:42:06.371Z,0.82
2022-10-24T06:44:33.390Z,0.82
2022-10-24T06:47:00.283Z,0.80
2022-10-24T06:49:27.234Z,1.55
2022-10-24T06:51:54.158Z,0.45
2022-10-24T06:54:22.396Z,1.00
2022-10-24T06:56:51.043Z,0.80
2022-10-24T06:59:19.025Z,0.63
2022-10-24T07:01:46.106Z,0.70
2022-10-24T07:04:13.268Z,0.82
2022-10-24T07:06:40.972Z,1.20
2022-10-24T07:09:11.473Z,1.20
2022-10-24T07:11:41.304Z,1.90
2022-10-24T07:14:09.479Z,0.75
2022-10-24T07:16:36.855Z,0.45
2022-10-24T07:19:05.574Z,0.88
2022-10-24T07:21:33.750Z,0.85
2022-10-24T07:24:01.321Z,1.25
2022-10-24T07:26:29.488Z,0.85
2022-10-24T07:29:03.928Z,0.32
2022-10-24T07:31:34.266Z,1.00
2022-10-24T07:34:04.515Z,0.80
2022-10-24T07:36:31.468Z,1.05
2022-10-24T07:39:00.031Z,1.13
2022-10-24T07:41:29.603Z,0.85
2022-10-24T07:43:58.839Z,1.10
2022-10-24T07:46:26.251Z,0.90
2022-10-24T07:48:54.001Z,1.77
2022-10-24T07:51:22.244Z,0.60
2022-10-24T07:53:49.515Z,1.02
2022-10-24T07:56:18.177Z,0.98
2022-10-24T07:58:47.022Z,1.05
2022-10-24T08:01:21.154Z,1.90
2022-10-24T08:03:48.573Z,0.82
2022-10-24T08:06:23.619Z,1.00
2022-10-24T08:08:50.891Z,0.80
2022-10-24T08:11:23.238Z,0.98
2022-10-24T08:13:52.032Z,1.02
2022-10-24T08:16:21.364Z,1.55
2022-10-24T08:18:49.535Z,0.77
2022-10-24T08:21:17.969Z,0.85
2022-10-24T08:23:48.719Z,1.33
2022-10-24T08:26:20.276Z,0.90
2022-10-24T08:28:47.366Z,0.70
2022-10-24T08:31:22.021Z,2.05
2022-10-24T08:33:53.019Z,1.20
2022-10-24T08:36:31.387Z,0.95
2022-10-24T08:38:59.095Z,1.17
2022-10-24T08:41:52.129Z,0.82
2022-10-24T08:44:30.780Z,0.73
2022-10-24T08:47:25.229Z,0.50
2022-10-24T08:49:59.570Z,1.00
2022-10-24T08:52:37.087Z,1.00
2022-10-24T08:55:48.681Z,0.82
2022-10-24T08:58:38.216Z,0.60
2022-10-24T09:01:28.646Z,0.80
2022-10-24T09:03:59.347Z,0.80
2022-10-24T09:06:30.179Z,1.35
2022-10-24T09:09:09.288Z,0.47
2022-10-24T09:11:51.363Z,0.80
2022-10-24T09:14:22.616Z,0.98
2022-10-24T09:16:59.170Z,1.42
2022-10-24T09:19:30.195Z,0.68
2022-10-24T09:21:59.457Z,1.30
2022-10-24T09:24:45.655Z,0.60
2022-10-24T09:29:47.767Z,0.70
2022-10-24T09:32:19.944Z,0.75
2022-10-24T09:34:47.429Z,1.00
2022-10-24T09:37:47.222Z,0.85
2022-10-24T09:40:34.263Z,1.50
2022-10-24T09:43:26.247Z,1.15
2022-10-24T09:46:13.585Z,0.50
2022-10-24T09:48:52.512Z,0.63
2022-10-24T09:51:27.696Z,0.85
2022-10-24T09:54:20.500Z,0.50
2022-10-24T09:57:11.616Z,1.70
2022-10-24T09:59:58.291Z,0.50
2022-10-24T10:02:36.627Z,1.23
2022-10-24T10:05:03.591Z,1.38
2022-10-24T10:07:35.619Z,0.70
2022-10-24T10:10:27.353Z,0.50
2022-10-24T10:13:24.567Z,1.00
2022-10-24T10:16:03.816Z,0.47
2022-10-24T10:18:45.633Z,0.57
2022-10-24T10:21:23.393Z,0.43
2022-10-24T10:23:56.759Z,0.73
2022-10-24T10:26:43.218Z,0.85
2022-10-24T10:29:27.227Z,0.60
2022-10-24T10:32:41.419Z,1.10
2022-10-24T10:35:33.139Z,0.68
2022-10-24T10:38:45.975Z,0.60
2022-10-24T10:41:37.418Z,0.57
2022-10-24T10:44:28.098Z,0.65
2022-10-24T10:47:35.219Z,0.80
2022-10-24T10:52:50.875Z,1.15
2022-10-24T10:55:48.390Z,2.13
2022-10-24T11:01:28.598Z,0.75
2022-10-24T11:04:38.116Z,0.80
2022-10-24T11:07:48.939Z,0.70
2022-10-24T11:10:22.276Z,1.15
2022-10-24T11:12:49.661Z,0.47
2022-10-24T11:15:29.725Z,0.55
2022-10-24T11:18:06.619Z,0.50
2022-10-24T11:20:58.540Z,0.80
2022-10-24T11:23:40.246Z,0.38
2022-10-24T11:26:43.655Z,0.30
2022-10-24T11:29:42.647Z,0.40
2022-10-24T11:32:37.103Z,0.57
2022-10-24T11:35:29.345Z,0.85
2022-10-24T11:38:17.938Z,0.57
2022-10-24T11:40:52.579Z,0.70
2022-10-24T11:43:37.876Z,1.40
2022-10-24T11:46:17.861Z,0.80
2022-10-24T11:49:05.161Z,0.50
2022-10-24T11:51:42.082Z,0.85
2022-10-24T11:54:32.827Z,0.70
2022-10-24T11:57:15.928Z,1.05
2022-10-24T11:59:43.430Z,0.43
2022-10-24T12:02:38.272Z,1.20
2022-10-24T12:05:22.824Z,0.60
2022-10-24T12:08:23.521Z,0.20
2022-10-24T12:11:06.200Z,0.45
2022-10-24T12:14:19.104Z,0.57
2022-10-24T12:17:10.264Z,0.60
2022-10-24T12:19:40.436Z,1.45
2022-10-24T12:22:14.902Z,0.60
2022-10-24T12:24:42.091Z,0.65
2022-10-24T12:27:35.750Z,0.90
2022-10-24T12:30:19.072Z,0.85
2022-10-24T12:32:54.097Z,0.73
2022-10-24T12:35:31.605Z,0.88
2022-10-24T12:38:00.012Z,0.82
2022-10-24T12:40:45.626Z,0.28
2022-10-24T12:43:36.592Z,0.50
2022-10-24T12:46:21.807Z,1.00
2022-10-24T12:48:59.099Z,1.08
2022-10-24T12:51:40.544Z,0.70
2022-10-24T12:54:13.269Z,0.52
2022-10-24T12:56:52.719Z,0.82
2022-10-24T12:59:31.460Z,0.50
2022-10-24T13:02:48.791Z,0.60
2022-10-24T13:08:41.213Z,0.60
2022-10-24T13:11:34.678Z,0.65
2022-10-24T13:14:36.572Z,0.60
2022-10-24T13:17:36.715Z,0.75
2022-10-24T13:20:27.306Z,0.57
2022-10-24T13:23:18.819Z,1.23
2022-10-24T13:25:46.686Z,0.82
2022-10-24T13:28:25.195Z,0.75
2022-10-24T13:31:17.864Z,1.23
2022-10-24T13:33:46.449Z,0.70
2022-10-24T13:36:27.938Z,0.80
2022-10-24T13:39:05.142Z,0.95
2022-10-24T13:41:40.587Z,0.90
2022-10-24T13:44:29.157Z,1.08
2022-10-24T13:47:20.886Z,0.82
2022-10-24T13:50:19.097Z,0.55
2022-10-24T13:52:54.935Z,1.10
2022-10-24T14:00:40.538Z,1.08
2022-10-24T14:03:23.934Z,0.90
2022-10-24T14:06:09.077Z,0.93
2022-10-24T14:08:42.742Z,0.90
2022-10-24T14:11:19.765Z,0.88
2022-10-24T14:13:57.230Z,0.50
2022-10-24T14:16:31.266Z,1.10
2022-10-24T14:19:28.398Z,0.73
2022-10-24T14:21:58.065Z,0.85
2022-10-24T14:24:25.405Z,1.60
2022-10-24T14:26:54.166Z,1.30
2022-10-24T14:29:28.590Z,1.30
2022-10-24T14:32:00.497Z,0.90
2022-10-24T14:34:32.622Z,1.23
2022-10-24T14:37:07.540Z,0.90
2022-10-24T14:39:35.104Z,0.90
2022-10-24T14:42:02.461Z,1.13
2022-10-24T14:44:29.921Z,1.00
2022-10-24T14:47:26.490Z,1.85
2022-10-24T14:50:00.239Z,1.70
2022-10-24T14:52:36.799Z,1.17
2022-10-24T14:55:22.285Z,1.20
2022-10-24T14:57:51.909Z,0.70
2022-10-24T15:00:25.339Z,0.85
2022-10-24T15:02:57.570Z,0.73
2022-10-24T15:05:29.649Z,0.90
2022-10-24T15:08:23.205Z,0.80
2022-10-24T15:11:07.410Z,0.95
2022-10-24T15:13:48.206Z,0.80
2022-10-24T15:16:42.172Z,0.80
2022-10-24T15:19:17.780Z,1.65
2022-10-24T15:24:24.222Z,0.95
2022-10-24T15:26:51.756Z,1.00
2022-10-24T15:29:23.493Z,0.82
2022-10-24T15:31:52.283Z,1.67
2022-10-24T15:34:22.667Z,1.35
2022-10-24T15:36:52.409Z,1.10
2022-10-24T15:39:24.515Z,0.88
2022-10-24T15:41:52.017Z,0.93
2022-10-24T15:44:25.474Z,0.90
2022-10-24T15:46:52.682Z,0.70
2022-10-24T15:49:19.997Z,0.98
2022-10-24T15:51:50.365Z,0.40
2022-10-24T15:54:20.483Z,0.70
2022-10-24T15:56:48.067Z,0.60
2022-10-24T15:59:15.121Z,1.50
2022-10-24T16:02:00.215Z,1.13
2022-10-24T16:04:28.400Z,0.57
2022-10-24T16:06:55.488Z,1.02
2022-10-24T16:09:27.488Z,0.60
2022-10-24T16:11:55.162Z,0.52
2022-10-24T16:14:23.247Z,0.80
2022-10-24T16:16:50.285Z,0.70
2022-10-24T16:19:17.234Z,0.90
2022-10-24T16:21:44.539Z,1.08
2022-10-24T16:24:12.840Z,1.00
2022-10-24T16:26:41.150Z,1.30
2022-10-24T16:29:08.210Z,0.93
2022-10-24T16:31:35.775Z,1.85
2022-10-24T16:34:03.165Z,1.15
2022-10-24T16:36:30.195Z,1.00
2022-10-24T16:38:57.207Z,1.13
2022-10-24T16:41:25.946Z,0.95
2022-10-24T16:43:57.628Z,1.17
2022-10-24T16:46:27.426Z,1.00
2022-10-24T16:48:55.234Z,2.20
2022-10-24T16:51:32.341Z,1.20
2022-10-24T16:54:02.078Z,0.80
2022-10-24T16:56:30.223Z,0.93
2022-10-24T16:58:57.382Z,0.82
2022-10-24T17:01:26.005Z,0.90
2022-10-24T17:03:52.994Z,1.10
2022-10-24T17:06:19.983Z,1.00
2022-10-24T17:08:46.963Z,1.40
2022-10-24T17:11:39.539Z,1.00
2022-10-24T17:14:00.880Z,1.58
2022-10-24T17:16:27.762Z,1.67
2022-10-24T17:19:05.655Z,0.70
2022-10-24T17:21:39.513Z,1.10
2022-10-24T17:24:11.215Z,1.25
2022-10-24T17:26:38.263Z,0.88
2022-10-24T17:29:05.624Z,1.48
2022-10-24T17:31:32.697Z,1.38
2022-10-24T17:34:00.059Z,1.95
2022-10-24T17:36:33.676Z,2.42
2022-10-24T17:39:46.734Z,1.20
2022-10-24T17:42:15.119Z,1.35
2022-10-24T17:44:44.082Z,1.90
2022-10-24T17:47:11.662Z,1.92
2022-10-24T17:49:38.676Z,1.67
2022-10-24T17:52:06.624Z,1.67
2022-10-24T17:54:33.590Z,2.40
2022-10-24T17:57:00.430Z,2.15
2022-10-24T17:59:27.331Z,1.88
2022-10-24T18:01:54.340Z,1.75
2022-10-24T18:04:21.456Z,1.70
2022-10-24T18:06:48.331Z,1.98
2022-10-24T18:09:15.232Z,1.75
2022-10-24T18:11:43.283Z,1.48
2022-10-24T18:14:10.163Z,1.77
2022-10-24T18:16:39.423Z,1.77
2022-10-24T18:19:06.691Z,1.35
2022-10-24T18:21:33.705Z,1.80
2022-10-24T18:24:00.639Z,1.52
2022-10-24T18:26:27.932Z,2.13
2022-10-24T18:28:56.235Z,2.40
2022-10-24T18:31:27.125Z,2.28
2022-10-24T18:33:54.391Z,1.73
2022-10-24T18:36:25.127Z,2.13
2022-10-24T18:38:55.116Z,1.55
2022-10-24T18:41:28.622Z,2.10
2022-10-24T18:43:58.470Z,1.73
2022-10-24T18:46:26.831Z,2.20
2022-10-24T18:48:54.067Z,2.88
2022-10-24T18:51:30.991Z,3.10
2022-10-24T18:54:04.851Z,2.45
2022-10-24T18:56:33.252Z,2.38
2022-10-24T18:59:00.254Z,3.40
2022-10-24T19:01:42.440Z,2.33
2022-10-24T19:04:20.426Z,2.75
2022-10-24T19:06:56.526Z,2.78
2022-10-24T19:09:25.347Z,2.55
2022-10-24T19:11:52.711Z,2.92
2022-10-24T19:14:21.038Z,2.75
2022-10-24T19:16:50.594Z,1.77
2022-10-24T19:19:31.203Z,1.98
2022-10-24T19:21:58.106Z,2.63
2022-10-24T19:24:25.655Z,1.55
2022-10-24T19:26:52.618Z,1.50
2022-10-24T19:29:19.680Z,1.17
2022-10-24T19:31:47.007Z,1.42
2022-10-24T19:34:14.565Z,1.27
2022-10-24T19:36:41.569Z,1.20
2022-10-24T19:39:09.405Z,1.23
2022-10-24T19:41:36.929Z,1.10
2022-10-24T19:44:04.987Z,1.00
2022-10-24T19:46:31.834Z,1.45
2022-10-24T19:48:58.774Z,1.00
2022-10-24T19:51:25.672Z,1.08
2022-10-24T19:53:52.869Z,1.70
2022-10-24T19:56:26.267Z,2.30
2022-10-24T19:58:55.407Z,1.33
2022-10-24T20:01:26.817Z,2.20
2022-10-24T20:03:55.473Z,2.38
2022-10-24T20:06:24.435Z,2.55
2022-10-24T20:08:51.471Z,2.45
2022-10-24T20:11:20.644Z,2.75
2022-10-24T20:13:50.334Z,1.90
2022-10-24T20:16:17.886Z,2.38
2022-10-24T20:18:45.711Z,2.08
2022-10-24T20:21:17.667Z,1.48
2022-10-24T20:23:46.639Z,2.15
2022-10-24T20:26:25.380Z,1.75
2022-10-24T20:28:55.131Z,2.13
2022-10-24T20:31:32.479Z,2.45
2022-10-24T20:34:07.047Z,3.03
2022-10-24T20:39:04.005Z,2.83
2022-10-24T20:41:30.928Z,2.50
2022-10-24T20:43:57.883Z,2.30
2022-10-24T20:46:24.813Z,2.25
2022-10-24T20:48:53.481Z,2.75
2022-10-24T20:51:21.529Z,2.75
2022-10-24T20:53:49.331Z,2.72
2022-10-24T20:56:22.812Z,3.03
2022-10-24T20:58:51.062Z,2.22
2022-10-24T21:01:24.406Z,2.78
2022-10-24T21:03:53.150Z,2.92
2022-10-24T21:06:23.039Z,3.83
2022-10-24T21:08:52.078Z,2.88
2022-10-24T21:11:26.526Z,2.75
2022-10-24T21:14:04.072Z,3.38
2022-10-24T21:16:31.318Z,3.03
2022-10-24T21:18:59.359Z,3.05
2022-10-24T21:21:26.811Z,4.22
2022-10-24T21:23:57.888Z,2.88
2022-10-24T21:26:26.628Z,4.60
2022-10-24T21:28:59.470Z,3.33
2022-10-24T21:31:36.346Z,3.33
2022-10-24T21:36:32.827Z,3.90
2022-10-24T21:38:59.783Z,3.97
2022-10-24T21:41:28.150Z,4.60
2022-10-24T21:43:55.257Z,5.82
2022-10-24T21:46:25.094Z,4.07
2022-10-24T21:48:54.767Z,5.35
2022-10-24T21:51:34.388Z,5.05
2022-10-24T21:54:13.369Z,4.88
2022-10-24T21:56:40.250Z,4.82
2022-10-24T21:59:12.354Z,5.72
2022-10-24T22:01:40.802Z,4.55
2022-10-24T22:04:08.267Z,4.63
2022-10-24T22:06:36.180Z,4.20
2022-10-24T22:09:05.651Z,3.92
2022-10-24T22:11:35.251Z,4.38
2022-10-24T22:14:03.896Z,4.05
2022-10-24T22:16:32.529Z,3.20
2022-10-24T22:19:04.543Z,3.85
2022-10-24T22:21:38.685Z,3.38
2022-10-24T22:24:12.897Z,2.92
2022-10-24T22:26:41.066Z,3.35
2022-10-24T22:29:10.796Z,2.95
2022-10-24T22:31:38.514Z,2.30
2022-10-24T22:34:06.197Z,2.30
2022-10-24T22:37:14.547Z,2.60
2022-10-24T22:39:41.786Z,2.58
2022-10-24T22:42:19.346Z,2.65
2022-10-24T22:44:48.479Z,2.50
2022-10-24T22:47:30.095Z,2.55
2022-10-24T22:50:34.058Z,2.38
2022-10-24T22:53:01.535Z,3.08
2022-10-24T22:56:01.309Z,2.80
2022-10-24T22:58:28.644Z,1.92
2022-10-24T23:01:02.940Z,2.50
2022-10-24T23:03:39.637Z,1.65
2022-10-24T23:06:50.530Z,2.00
2022-10-24T23:09:17.498Z,1.90
2022-10-24T23:11:44.982Z,2.55
2022-10-24T23:14:12.598Z,2.65
2022-10-24T23:16:50.175Z,2.45
2022-10-24T23:19:23.201Z,1.90
2022-10-24T23:22:24.654Z,2.13
2022-10-24T23:24:54.193Z,2.58
2022-10-24T23:27:26.930Z,1.75
2022-10-24T23:29:54.288Z,2.50
2022-10-24T23:32:25.448Z,2.28
2022-10-24T23:34:53.900Z,2.83
2022-10-24T23:37:31.898Z,2.65
2022-10-24T23:40:35.487Z,2.85
2022-10-24T23:43:04.559Z,2.80
2022-10-24T23:46:04.205Z,3.67
2022-10-24T23:49:13.203Z,4.25
2022-10-24T23:52:06.405Z,4.63
2022-10-24T23:54:33.944Z,5.05
2022-10-24T23:57:01.590Z,5.50
2022-10-24T23:59:28.766Z,5.18
